Time;durP1;ratioP1;P1;durP2;ratioP2;P2;SDS_P1;SDS_P2;PMS_P1;PMS_P2;Temp;Humidity;BMP_temperature;BMP_pressure;BME280_temperature;BME280_humidity;BME280_pressure;Samples;Min_cycle;Max_cycle;Signal;HPM_P1;HPM_P2
2022/03/29 00:00:50;;;;;;;16.65;9.90;;;;;;;7.99;72.18;99857.00;5058748;28;20059;-58
2022/03/29 00:03:16;;;;;;;14.93;9.43;;;;;;;8.03;71.93;99861.28;5059718;28;20120;-58
2022/03/29 00:05:41;;;;;;;18.95;9.93;;;;;;;8.08;71.68;99855.06;5054525;28;20040;-58
2022/03/29 00:08:07;;;;;;;17.02;10.32;;;;;;;8.11;71.41;99849.78;5065965;28;20434;-58
2022/03/29 00:10:32;;;;;;;20.65;10.55;;;;;;;8.10;71.58;99842.81;5070859;28;20028;-57
2022/03/29 00:12:58;;;;;;;18.30;10.68;;;;;;;8.21;71.00;99841.72;5075352;28;20111;-58
2022/03/29 00:15:24;;;;;;;17.45;10.60;;;;;;;8.17;71.13;99835.69;5073705;28;20028;-57
2022/03/29 00:17:50;;;;;;;17.00;10.10;;;;;;;8.14;71.27;99839.25;5075261;28;20055;-59
2022/03/29 00:20:19;;;;;;;16.40;9.63;;;;;;;8.18;71.00;99828.69;5069642;28;20118;-59
2022/03/29 00:22:47;;;;;;;21.13;10.45;;;;;;;8.08;71.58;99828.03;5055241;28;20036;-59
2022/03/29 00:25:13;;;;;;;17.92;10.68;;;;;;;8.13;71.11;99834.88;5061185;28;20029;-59
2022/03/29 00:27:39;;;;;;;19.35;11.75;;;;;;;8.18;71.23;99829.59;5074842;28;20040;-59
2022/03/29 00:30:07;;;;;;;20.67;11.55;;;;;;;8.13;71.22;99823.56;5072738;28;20029;-59
2022/03/29 00:32:33;;;;;;;17.00;10.00;;;;;;;8.25;70.87;99819.81;5067865;28;20029;-59
2022/03/29 00:34:59;;;;;;;18.05;9.98;;;;;;;8.23;71.05;99821.63;5055294;28;20037;-59
2022/03/29 00:37:27;;;;;;;17.30;11.02;;;;;;;8.32;70.58;99821.44;5059936;28;20028;-57
2022/03/29 00:39:53;;;;;;;19.10;10.20;;;;;;;8.27;70.63;99811.06;5060345;28;20044;-57
2022/03/29 00:42:18;;;;;;;17.83;10.65;;;;;;;8.28;70.73;99809.28;5056061;28;20526;-58
2022/03/29 00:44:44;;;;;;;18.40;9.90;;;;;;;8.37;70.30;99809.97;5055598;28;20028;-57
2022/03/29 00:47:09;;;;;;;16.42;10.27;;;;;;;8.47;69.96;99801.94;5056048;28;20088;-58
2022/03/29 00:49:35;;;;;;;20.48;11.65;;;;;;;8.39;70.18;99796.88;5073228;28;20068;-57
2022/03/29 00:52:03;;;;;;;20.83;11.82;;;;;;;8.38;70.17;99789.94;5073793;28;20111;-57
2022/03/29 00:54:32;;;;;;;17.77;10.50;;;;;;;8.41;70.29;99792.44;5074509;28;20112;-58
2022/03/29 00:56:59;;;;;;;18.73;10.32;;;;;;;8.47;69.91;99792.34;5070100;28;20039;-57
2022/03/29 00:59:25;;;;;;;18.67;12.43;;;;;;;8.43;69.96;99788.06;5058603;28;20053;-57
2022/03/29 01:01:51;;;;;;;20.23;11.02;;;;;;;8.48;69.84;99787.94;5054051;28;20520;-58
2022/03/29 01:04:16;;;;;;;20.63;11.10;;;;;;;8.55;69.59;99792.16;5067199;28;20064;-58
2022/03/29 01:06:45;;;;;;;16.75;10.25;;;;;;;8.51;69.70;99783.50;5068663;28;20457;-57
2022/03/29 01:09:11;;;;;;;19.83;10.73;;;;;;;8.48;69.86;99780.97;5071352;28;20075;-57
2022/03/29 01:11:38;;;;;;;16.65;10.43;;;;;;;8.44;70.05;99778.44;5056593;28;20393;-58
2022/03/29 01:14:04;;;;;;;14.85;10.15;;;;;;;8.55;69.60;99771.22;5064395;28;20071;-58
2022/03/29 01:19:18;;;;;;;19.27;11.05;;;;;;;8.41;70.08;99766.28;5072091;28;20067;-58
2022/03/29 01:21:59;;;;;;;16.60;10.60;;;;;;;8.28;70.66;99773.50;5065871;28;20120;-58
2022/03/29 01:24:26;;;;;;;16.33;10.32;;;;;;;8.26;70.73;99770.09;5061011;28;20452;-58
2022/03/29 01:26:59;;;;;;;22.42;11.27;;;;;;;8.24;71.02;99765.75;5068149;28;20087;-58
2022/03/29 01:29:25;;;;;;;17.67;10.45;;;;;;;8.27;70.94;99778.78;5054610;28;20029;-58
2022/03/29 01:31:51;;;;;;;17.95;11.43;;;;;;;8.31;70.57;99775.22;5067233;28;20043;-58
2022/03/29 01:34:19;;;;;;;17.63;10.00;;;;;;;8.40;70.45;99767.19;5072165;28;20419;-58
2022/03/29 01:36:44;;;;;;;19.60;10.38;;;;;;;8.49;70.01;99766.97;5074050;28;20079;-58
2022/03/29 01:39:10;;;;;;;17.67;10.43;;;;;;;8.49;69.93;99772.19;5070444;28;20070;-58
2022/03/29 01:41:36;;;;;;;17.58;11.23;;;;;;;8.49;70.05;99774.81;5054794;28;20438;-58
2022/03/29 01:44:01;;;;;;;21.58;11.23;;;;;;;8.43;70.32;99777.59;5073847;28;20047;-58
2022/03/29 01:46:27;;;;;;;17.88;11.18;;;;;;;8.45;70.23;99767.94;5057459;28;20120;-58
2022/03/29 01:48:52;;;;;;;18.20;11.20;;;;;;;8.45;70.33;99769.69;5053992;28;20041;-58
2022/03/29 01:51:18;;;;;;;19.83;10.82;;;;;;;8.47;70.25;99765.28;5054711;28;20090;-58
2022/03/29 01:53:47;;;;;;;20.65;11.55;;;;;;;8.48;70.25;99765.25;5054037;28;20032;-58
2022/03/29 01:56:13;;;;;;;22.05;10.48;;;;;;;8.53;70.08;99762.50;5057044;28;20507;-58
2022/03/29 01:58:38;;;;;;;25.33;12.20;;;;;;;8.44;70.32;99760.97;5053227;28;20044;-58
2022/03/29 02:01:04;;;;;;;18.48;11.40;;;;;;;8.53;70.16;99758.13;5058122;28;20044;-58
2022/03/29 02:03:29;;;;;;;21.17;11.95;;;;;;;8.43;70.62;99753.16;5064538;28;20086;-58
2022/03/29 02:05:54;;;;;;;22.50;11.98;;;;;;;8.43;70.39;99750.56;5073497;28;20056;-58
2022/03/29 02:08:20;;;;;;;19.85;11.82;;;;;;;8.44;70.38;99747.88;5067680;28;20526;-58
2022/03/29 02:10:46;;;;;;;24.75;12.68;;;;;;;8.52;69.85;99748.56;5053282;28;20047;-58
2022/03/29 02:13:11;;;;;;;26.00;11.60;;;;;;;8.59;69.60;99742.28;5053293;28;20033;-58
2022/03/29 02:15:38;;;;;;;21.58;12.38;;;;;;;8.61;69.18;99748.34;5058546;28;20033;-58
2022/03/29 02:18:04;;;;;;;22.48;11.18;;;;;;;8.68;69.00;99735.13;5057582;28;20041;-58
2022/03/29 02:20:29;;;;;;;23.85;11.23;;;;;;;8.69;68.96;99736.84;5057284;28;20469;-58
2022/03/29 02:22:55;;;;;;;22.63;10.45;;;;;;;8.68;68.74;99741.22;5057737;28;20445;-58
2022/03/29 02:25:21;;;;;;;20.20;11.57;;;;;;;8.62;68.71;99737.00;5057083;28;20472;-58
2022/03/29 02:27:47;;;;;;;23.40;12.07;;;;;;;8.67;68.66;99733.41;5075855;28;20488;-58
2022/03/29 02:30:15;;;;;;;20.77;12.02;;;;;;;8.56;68.81;99741.50;5075086;28;20037;-58
2022/03/29 02:32:41;;;;;;;20.25;10.73;;;;;;;8.49;68.93;99740.78;5077959;28;20029;-58
2022/03/29 02:35:08;;;;;;;20.58;11.32;;;;;;;8.59;68.62;99742.28;5071709;28;20094;-58
2022/03/29 02:37:33;;;;;;;18.42;10.32;;;;;;;8.73;68.31;99735.84;5077182;28;20036;-58
2022/03/29 02:39:59;;;;;;;21.38;10.60;;;;;;;8.73;68.21;99741.09;5062786;28;20029;-58
2022/03/29 02:42:24;;;;;;;17.63;10.55;;;;;;;8.71;68.09;99738.53;5057986;28;20037;-58
2022/03/29 02:44:49;;;;;;;19.60;10.63;;;;;;;8.75;67.93;99734.94;5057096;28;20120;-58
2022/03/29 02:47:15;;;;;;;22.50;11.75;;;;;;;8.75;67.67;99742.78;5058189;28;20102;-58
2022/03/29 02:49:40;;;;;;;16.35;10.20;;;;;;;8.84;67.30;99739.09;5057070;28;20025;-58
2022/03/29 02:52:06;;;;;;;22.95;11.90;;;;;;;8.83;67.24;99745.22;5070803;28;20044;-58
2022/03/29 02:54:32;;;;;;;19.55;10.23;;;;;;;8.92;66.89;99742.38;5072673;28;20476;-58
2022/03/29 02:56:57;;;;;;;22.10;11.30;;;;;;;8.94;66.85;99742.34;5076868;28;20037;-58
2022/03/29 02:59:23;;;;;;;22.33;10.40;;;;;;;8.99;66.52;99746.56;5065199;28;20099;-58
2022/03/29 03:01:48;;;;;;;21.25;10.50;;;;;;;8.98;66.78;99747.47;5057771;28;20091;-58
2022/03/29 03:04:14;;;;;;;20.20;9.85;;;;;;;9.00;66.38;99743.03;5059033;28;20047;-58
2022/03/29 03:06:40;;;;;;;19.02;11.07;;;;;;;8.99;66.49;99748.31;5076656;28;20036;-58
2022/03/29 03:09:07;;;;;;;25.05;11.48;;;;;;;8.99;66.39;99743.09;5070259;28;20033;-58
2022/03/29 03:11:32;;;;;;;18.80;9.15;;;;;;;8.98;66.30;99746.63;5059456;28;20794;-59
2022/03/29 03:13:58;;;;;;;20.98;10.90;;;;;;;8.91;66.40;99743.28;5057513;28;20116;-58
2022/03/29 03:16:23;;;;;;;21.02;11.05;;;;;;;8.67;67.08;99741.25;5056184;28;20029;-57
2022/03/29 03:18:49;;;;;;;21.73;10.95;;;;;;;8.70;66.79;99744.66;5074187;28;20116;-59
2022/03/29 03:21:14;;;;;;;21.27;10.68;;;;;;;8.48;67.21;99751.28;5060838;28;20033;-58
2022/03/29 03:23:40;;;;;;;21.05;10.27;;;;;;;8.48;66.99;99748.69;5058826;28;20451;-58
2022/03/29 03:26:05;;;;;;;18.90;10.43;;;;;;;8.35;67.45;99746.31;5055921;28;20036;-58
2022/03/29 03:28:31;;;;;;;19.92;10.02;;;;;;;8.30;66.66;99757.78;5059784;28;20065;-57
2022/03/29 03:30:56;;;;;;;21.02;9.68;;;;;;;8.25;65.89;99751.78;5060367;28;20063;-57
2022/03/29 03:33:22;;;;;;;19.95;9.32;;;;;;;8.31;65.76;99749.03;5068113;28;20035;-58
2022/03/29 03:35:47;;;;;;;17.73;8.73;;;;;;;8.29;65.01;99740.34;5076293;28;20468;-58
2022/03/29 03:38:13;;;;;;;18.92;9.02;;;;;;;8.26;64.00;99732.56;5064698;28;20056;-58
2022/03/29 03:40:41;;;;;;;17.08;8.13;;;;;;;8.34;63.91;99744.59;5060505;28;20045;-57
2022/03/29 03:43:07;;;;;;;18.73;8.48;;;;;;;8.32;63.83;99758.59;5070736;28;20036;-57
2022/03/29 03:45:32;;;;;;;22.92;9.48;;;;;;;8.28;63.94;99752.56;5060183;28;20116;-58
2022/03/29 03:47:58;;;;;;;24.27;9.32;;;;;;;8.21;64.12;99750.13;5055813;28;20108;-58
2022/03/29 03:50:23;;;;;;;17.30;8.57;;;;;;;8.31;63.78;99746.41;5069022;28;20036;-58
2022/03/29 03:52:53;;;;;;;16.13;8.02;;;;;;;8.33;63.80;99750.69;5075864;28;20034;-57
2022/03/29 03:55:19;;;;;;;22.58;8.82;;;;;;;8.34;63.81;99754.22;5060600;28;20533;-57
2022/03/29 03:57:45;;;;;;;19.13;9.25;;;;;;;8.27;64.16;99763.09;5055353;28;20041;-57
2022/03/29 04:00:11;;;;;;;18.35;8.55;;;;;;;8.39;63.94;99755.84;5058742;28;20033;-58
2022/03/29 04:02:38;;;;;;;15.23;7.72;;;;;;;8.42;63.84;99754.03;5055513;28;20033;-57
2022/03/29 04:05:04;;;;;;;19.60;8.95;;;;;;;8.41;63.75;99753.19;5055555;28;20036;-57
2022/03/29 04:07:29;;;;;;;19.98;8.70;;;;;;;8.38;64.01;99759.38;5055376;28;20116;-57
2022/03/29 04:09:54;;;;;;;17.70;8.73;;;;;;;8.41;63.97;99758.41;5059394;28;20047;-58
2022/03/29 04:12:20;;;;;;;17.67;8.23;;;;;;;8.42;63.86;99765.41;5075365;28;20028;-57
2022/03/29 04:14:46;;;;;;;22.38;8.85;;;;;;;8.37;64.10;99773.34;5067285;28;20513;-59
2022/03/29 04:17:11;;;;;;;18.65;8.50;;;;;;;8.33;64.26;99760.31;5072218;28;20114;-58
2022/03/29 04:19:37;;;;;;;21.70;9.02;;;;;;;8.35;64.26;99755.94;5055136;28;20057;-58
2022/03/29 04:22:03;;;;;;;20.50;8.65;;;;;;;8.37;64.04;99762.84;5066693;28;20086;-58
2022/03/29 04:24:29;;;;;;;19.10;9.18;;;;;;;8.40;64.04;99772.41;5072181;28;20846;-58
2022/03/29 04:26:55;;;;;;;25.05;8.85;;;;;;;8.37;64.24;99769.84;5055114;28;20036;-58
2022/03/29 04:29:20;;;;;;;21.05;9.05;;;;;;;8.36;64.27;99768.09;5060418;28;20090;-58
2022/03/29 04:31:46;;;;;;;20.13;9.70;;;;;;;8.27;64.48;99769.19;5069200;28;20032;-58
2022/03/29 04:34:11;;;;;;;17.77;9.48;;;;;;;8.24;64.68;99766.63;5074385;28;20427;-58
2022/03/29 04:36:37;;;;;;;18.30;9.48;;;;;;;8.32;64.69;99763.84;5070311;28;20111;-58
2022/03/29 04:39:03;;;;;;;26.85;10.25;;;;;;;8.19;64.89;99760.63;5074729;28;20036;-58
2022/03/29 04:41:28;;;;;;;24.40;10.95;;;;;;;8.16;65.16;99765.94;5073767;28;20029;-58
2022/03/29 04:43:53;;;;;;;23.50;11.35;;;;;;;8.14;65.17;99765.97;5073218;28;20490;-58
2022/03/29 04:46:19;;;;;;;25.38;10.68;;;;;;;8.09;65.25;99762.56;5063197;28;20028;-58
2022/03/29 04:48:44;;;;;;;19.52;9.23;;;;;;;8.07;65.46;99753.06;5057757;28;20028;-58
2022/03/29 04:51:10;;;;;;;21.13;9.73;;;;;;;8.02;65.73;99762.72;5074125;28;20036;-58
2022/03/29 04:53:36;;;;;;;22.27;10.88;;;;;;;7.98;66.05;99761.06;5074256;28;20031;-58
2022/03/29 04:56:01;;;;;;;23.70;10.70;;;;;;;8.03;65.75;99760.09;5064778;28;20044;-58
2022/03/29 04:58:27;;;;;;;25.75;10.18;;;;;;;8.03;65.80;99757.47;5063271;28;20468;-58
2022/03/29 05:00:53;;;;;;;23.83;9.93;;;;;;;8.09;65.71;99765.19;5068123;28;20488;-58
2022/03/29 05:03:18;;;;;;;21.67;9.93;;;;;;;8.08;65.82;99760.84;5063466;28;20476;-59
2022/03/29 05:05:44;;;;;;;22.52;10.80;;;;;;;8.16;65.60;99763.31;5070778;28;20032;-59
2022/03/29 05:08:09;;;;;;;26.30;10.40;;;;;;;8.15;65.65;99759.84;5072625;28;20032;-58
2022/03/29 05:10:35;;;;;;;34.72;13.40;;;;;;;8.15;65.69;99765.06;5072967;28;20512;-58
2022/03/29 05:13:01;;;;;;;28.58;12.57;;;;;;;8.17;65.63;99759.78;5071377;28;20475;-59
2022/03/29 05:15:27;;;;;;;25.15;11.63;;;;;;;8.15;65.66;99764.22;5071699;28;20040;-58
2022/03/29 05:17:52;;;;;;;25.92;11.20;;;;;;;8.02;66.16;99760.13;5066885;28;20029;-59
2022/03/29 05:20:18;;;;;;;27.15;12.38;;;;;;;8.12;65.82;99767.75;5063971;28;20460;-58
2022/03/29 05:22:51;;;;;;;28.90;12.60;;;;;;;8.04;65.95;99763.56;5072126;28;20483;-59
2022/03/29 05:25:23;;;;;;;34.97;15.68;;;;;;;8.08;65.70;99760.84;5072742;28;20020;-59
2022/03/29 05:27:53;;;;;;;30.30;10.93;;;;;;;8.15;65.38;99761.59;5074100;28;20027;-59
2022/03/29 05:30:21;;;;;;;33.22;12.57;;;;;;;7.99;65.49;99775.91;5072230;28;20106;-59
2022/03/29 05:32:47;;;;;;;23.83;10.90;;;;;;;7.93;65.17;99774.25;5072922;28;20044;-59
2022/03/29 05:35:13;;;;;;;21.58;10.45;;;;;;;8.07;64.86;99773.97;5071348;28;20036;-59
2022/03/29 05:37:41;;;;;;;23.45;10.82;;;;;;;8.04;64.26;99781.88;5072839;28;20101;-60
2022/03/29 05:40:08;;;;;;;20.80;9.15;;;;;;;8.18;63.99;99781.59;5071852;28;20120;-59
2022/03/29 05:42:41;;;;;;;20.73;8.90;;;;;;;8.30;63.26;99787.44;5072211;28;20039;-58
2022/03/29 05:45:07;;;;;;;14.80;7.72;;;;;;;8.48;62.88;99780.97;5072010;28;20029;-58
2022/03/29 05:50:17;;;;;;;17.50;8.32;;;;;;;8.48;61.95;99795.81;5072887;28;20044;-58
2022/03/29 05:52:42;;;;;;;22.42;11.02;;;;;;;8.53;61.33;99789.56;5072000;28;20392;-57
2022/03/29 05:55:08;;;;;;;23.42;11.43;;;;;;;8.34;61.15;99799.56;5073514;28;20383;-58
2022/03/29 05:57:34;;;;;;;34.03;16.40;;;;;;;8.34;61.30;99788.25;5072917;28;20036;-58
2022/03/29 05:59:59;;;;;;;22.67;12.13;;;;;;;8.25;61.16;99791.88;5071861;28;20049;-58
2022/03/29 06:02:25;;;;;;;19.52;9.80;;;;;;;8.14;60.61;99797.38;5068159;28;20021;-58
2022/03/29 06:04:50;;;;;;;16.80;8.20;;;;;;;8.19;61.07;99796.41;5071397;28;20461;-58
2022/03/29 06:07:16;;;;;;;19.15;8.23;;;;;;;8.21;60.37;99792.84;5072732;28;20381;-58
2022/03/29 06:09:41;;;;;;;18.02;8.27;;;;;;;8.12;60.17;99807.00;5070653;28;20116;-58
2022/03/29 06:12:07;;;;;;;16.75;7.25;;;;;;;8.15;60.17;99798.22;5063316;28;20033;-58
2022/03/29 06:14:32;;;;;;;16.33;7.57;;;;;;;8.04;59.73;99808.91;5053319;28;20045;-58
2022/03/29 06:16:59;;;;;;;12.60;6.47;;;;;;;8.03;59.44;99814.19;5066130;28;20063;-57
2022/03/29 06:19:25;;;;;;;14.63;7.10;;;;;;;8.14;58.92;99800.00;5072867;28;20082;-58
2022/03/29 06:21:50;;;;;;;18.42;7.20;;;;;;;8.29;58.44;99806.63;5073424;28;20032;-58
2022/03/29 06:24:16;;;;;;;16.33;7.15;;;;;;;8.34;58.12;99798.72;5071028;28;20475;-58
2022/03/29 06:26:41;;;;;;;16.40;7.10;;;;;;;8.41;58.04;99807.31;5063743;28;20036;-58
2022/03/29 06:29:08;;;;;;;14.85;7.55;;;;;;;8.44;57.95;99809.88;5068918;28;20021;-58
2022/03/29 06:31:34;;;;;;;15.93;6.47;;;;;;;8.42;56.88;99807.28;5073168;28;20439;-59
2022/03/29 06:33:59;;;;;;;15.48;6.10;;;;;;;8.57;57.30;99812.16;5072895;28;20060;-59
2022/03/29 06:36:25;;;;;;;15.48;6.45;;;;;;;8.59;56.68;99805.16;5073429;28;20037;-59
2022/03/29 06:38:51;;;;;;;13.30;6.20;;;;;;;8.46;56.86;99801.09;5072914;28;20040;-58
2022/03/29 06:41:16;;;;;;;18.63;6.72;;;;;;;8.37;56.94;99809.13;5072813;28;20041;-58
2022/03/29 06:43:42;;;;;;;15.73;6.32;;;;;;;8.27;57.14;99813.69;5072866;28;20028;-59
2022/03/29 06:46:09;;;;;;;14.85;5.93;;;;;;;8.04;57.26;99818.53;5067972;28;20044;-59
2022/03/29 06:48:41;;;;;;;16.40;6.57;;;;;;;8.00;57.37;99817.72;5072369;28;20048;-58
2022/03/29 06:51:08;;;;;;;13.27;5.68;;;;;;;8.19;57.32;99822.59;5072498;28;20217;-59
2022/03/29 06:53:35;;;;;;;14.07;5.95;;;;;;;8.35;56.68;99827.47;5072467;28;20621;-59
2022/03/29 06:56:00;;;;;;;12.57;6.20;;;;;;;8.53;56.38;99823.59;5072859;28;20036;-58
2022/03/29 06:58:26;;;;;;;14.30;6.28;;;;;;;8.59;56.16;99820.84;5072943;28;20102;-59
2022/03/29 07:00:51;;;;;;;15.50;5.50;;;;;;;8.74;55.84;99824.03;5073960;28;20098;-59
2022/03/29 07:03:16;;;;;;;13.13;5.63;;;;;;;8.78;55.28;99825.69;5070410;28;20029;-58
2022/03/29 07:05:42;;;;;;;16.77;6.22;;;;;;;8.84;54.81;99829.00;5076481;28;20060;-58
2022/03/29 07:08:10;;;;;;;16.45;5.78;;;;;;;8.83;54.54;99829.91;5076499;28;20044;-59
2022/03/29 07:13:22;;;;;;;12.75;5.32;;;;;;;8.96;53.82;99820.00;5076383;28;20055;-58
2022/03/29 07:15:51;;;;;;;13.38;5.70;;;;;;;8.95;53.94;99814.81;5076316;28;20039;-58
2022/03/29 07:18:17;;;;;;;13.73;5.15;;;;;;;9.19;53.84;99811.59;5075876;28;20029;-58
2022/03/29 07:20:43;;;;;;;16.50;5.90;;;;;;;9.15;53.26;99809.09;5075901;28;20036;-59
2022/03/29 07:23:08;;;;;;;20.33;8.15;;;;;;;9.33;53.27;99817.31;5075968;28;20036;-59
2022/03/29 07:25:34;;;;;;;13.65;5.95;;;;;;;9.27;52.55;99819.25;5075818;28;20377;-59
2022/03/29 07:28:01;;;;;;;16.23;6.28;;;;;;;9.43;52.54;99820.59;5075999;28;20075;-60
2022/03/29 07:30:27;;;;;;;10.85;5.18;;;;;;;9.58;52.29;99812.31;5076089;28;20452;-59
2022/03/29 07:32:55;;;;;;;13.93;6.07;;;;;;;9.83;51.91;99815.13;5076028;28;20116;-59
2022/03/29 07:35:22;;;;;;;14.52;6.63;;;;;;;9.75;51.87;99821.50;5076083;28;20423;-59
2022/03/29 07:37:48;;;;;;;14.30;5.82;;;;;;;9.78;51.65;99810.94;5075844;28;20036;-59
2022/03/29 07:40:17;;;;;;;10.65;5.90;;;;;;;9.87;51.08;99805.41;5075611;28;20059;-59
2022/03/29 07:42:43;;;;;;;14.50;5.40;;;;;;;10.04;49.65;99821.53;5075350;28;20028;-59
2022/03/29 07:45:11;;;;;;;11.55;5.57;;;;;;;10.40;48.82;99812.69;5075852;28;20093;-59
2022/03/29 07:47:37;;;;;;;12.35;5.10;;;;;;;10.90;48.19;99810.28;5075795;28;20045;-59
2022/03/29 07:50:06;;;;;;;11.80;4.60;;;;;;;11.10;47.38;99808.72;5075752;28;20033;-59
2022/03/29 07:52:34;;;;;;;10.23;4.78;;;;;;;11.19;47.33;99806.69;5075707;28;20036;-59
2022/03/29 07:54:59;;;;;;;7.97;4.28;;;;;;;11.38;46.63;99810.41;5074126;28;20480;-59
2022/03/29 07:57:25;;;;;;;8.32;3.85;;;;;;;11.25;45.62;99806.47;5075476;28;20166;-59
2022/03/29 07:59:50;;;;;;;8.82;3.83;;;;;;;11.30;45.79;99807.19;5075285;28;20076;-59
2022/03/29 08:02:16;;;;;;;9.02;3.33;;;;;;;11.44;44.57;99802.31;5075577;28;20036;-59
2022/03/29 08:04:41;;;;;;;10.90;4.68;;;;;;;11.44;45.47;99804.94;5075443;28;20111;-59
2022/03/29 08:07:08;;;;;;;10.93;4.82;;;;;;;11.49;45.68;99810.91;5075224;28;20166;-59
2022/03/29 08:09:33;;;;;;;9.27;4.55;;;;;;;11.32;45.46;99816.72;5075344;28;20056;-59
2022/03/29 08:11:59;;;;;;;12.80;4.80;;;;;;;11.32;45.77;99811.47;5074450;28;20505;-59
2022/03/29 08:14:25;;;;;;;9.77;4.43;;;;;;;11.37;45.72;99808.72;5075614;28;20029;-59
2022/03/29 08:16:53;;;;;;;10.50;4.40;;;;;;;11.45;45.61;99809.31;5073881;28;20043;-59
2022/03/29 08:19:22;;;;;;;10.02;4.63;;;;;;;11.53;45.52;99816.91;5074991;28;20056;-59
2022/03/29 08:21:50;;;;;;;11.88;4.57;;;;;;;11.52;45.43;99815.19;5075041;28;20063;-59
2022/03/29 08:24:21;;;;;;;15.57;5.35;;;;;;;11.63;45.26;99804.31;5074628;28;20067;-59
2022/03/29 08:26:48;;;;;;;8.13;4.10;;;;;;;11.78;45.64;99801.13;5073632;28;20483;-59
2022/03/29 08:29:16;;;;;;;10.32;4.85;;;;;;;11.63;45.10;99813.06;5074893;28;20036;-59
2022/03/29 08:31:43;;;;;;;8.75;4.45;;;;;;;11.87;45.25;99806.09;5075028;28;20086;-59
2022/03/29 08:34:10;;;;;;;13.02;4.35;;;;;;;11.90;44.65;99813.88;5074646;28;20074;-59
2022/03/29 08:36:38;;;;;;;8.23;4.13;;;;;;;11.96;44.79;99808.38;5073010;28;20086;-59
2022/03/29 08:39:08;;;;;;;8.93;4.80;;;;;;;12.07;44.05;99819.41;5074188;28;20107;-60
2022/03/29 08:41:37;;;;;;;12.73;4.45;;;;;;;12.10;44.17;99809.69;5074714;28;20115;-57
2022/03/29 08:44:03;;;;;;;10.35;4.35;;;;;;;12.18;43.00;99812.88;5074293;28;20028;-58
2022/03/29 08:46:39;;;;;;;9.20;4.10;;;;;;;12.27;42.27;99815.16;5073523;28;20384;-58
2022/03/29 08:49:06;;;;;;;12.80;4.68;;;;;;;12.17;42.32;99814.66;5074289;28;20089;-58
2022/03/29 08:51:32;;;;;;;9.85;4.25;;;;;;;12.28;42.58;99812.47;5073938;28;20040;-58
2022/03/29 08:53:58;;;;;;;11.07;4.50;;;;;;;12.26;42.53;99808.19;5074520;28;20033;-58
2022/03/29 08:56:24;;;;;;;12.45;4.93;;;;;;;12.25;42.82;99802.06;5073923;28;20036;-58
2022/03/29 08:58:50;;;;;;;9.23;5.05;;;;;;;12.47;42.63;99796.81;5073755;28;20044;-58
2022/03/29 09:01:20;;;;;;;10.18;5.25;;;;;;;12.32;42.16;99807.94;5070716;28;20035;-58
2022/03/29 09:04:11;;;;;;;8.82;4.38;;;;;;;12.31;42.10;99793.06;5067194;28;20366;-59
2022/03/29 09:06:58;;;;;;;13.45;5.20;;;;;;;12.33;42.27;99805.25;5070532;28;20119;-58
2022/03/29 09:09:35;;;;;;;12.80;5.15;;;;;;;11.78;42.83;99799.34;5069010;28;20094;-58
2022/03/29 09:12:17;;;;;;;9.13;4.13;;;;;;;11.92;43.21;99793.63;5071647;28;20031;-57
2022/03/29 09:15:02;;;;;;;10.30;4.93;;;;;;;11.96;43.00;99794.38;5069746;28;20483;-59
2022/03/29 09:17:33;;;;;;;7.82;4.38;;;;;;;12.00;43.02;99791.56;5071926;28;20040;-57
2022/03/29 09:20:10;;;;;;;8.88;4.45;;;;;;;12.06;42.52;99779.97;5071184;28;20117;-57
2022/03/29 09:22:42;;;;;;;12.13;4.90;;;;;;;12.15;42.81;99795.41;5072454;28;20043;-58
2022/03/29 09:25:18;;;;;;;11.43;4.75;;;;;;;12.38;42.60;99777.88;5072750;28;20491;-59
2022/03/29 09:27:56;;;;;;;11.45;4.50;;;;;;;12.35;41.57;99789.38;5072314;28;20025;-58
2022/03/29 09:30:22;;;;;;;6.75;3.47;;;;;;;12.53;41.37;99787.84;5073362;28;20037;-58
2022/03/29 09:32:52;;;;;;;8.50;4.15;;;;;;;12.66;41.12;99780.31;5071127;28;20032;-58
2022/03/29 09:35:18;;;;;;;10.57;4.60;;;;;;;12.78;40.94;99785.94;5073029;28;20488;-59
2022/03/29 09:37:45;;;;;;;9.88;4.15;;;;;;;13.11;40.73;99782.00;5073176;28;20043;-59
2022/03/29 09:40:12;;;;;;;10.60;4.32;;;;;;;13.15;40.08;99779.16;5073045;28;20032;-59
2022/03/29 09:42:40;;;;;;;9.75;3.85;;;;;;;13.33;39.81;99776.72;5072785;28;20028;-60
2022/03/29 09:45:06;;;;;;;7.53;3.35;;;;;;;13.30;38.73;99767.13;5073288;28;20115;-59
2022/03/29 09:47:32;;;;;;;9.48;3.10;;;;;;;13.31;38.63;99776.75;5071901;28;20032;-59
2022/03/29 09:50:02;;;;;;;4.95;2.50;;;;;;;13.53;37.35;99771.44;5070793;28;20028;-59
2022/03/29 09:52:43;;;;;;;6.90;3.20;;;;;;;13.53;36.41;99774.06;5067422;28;20060;-59
2022/03/29 09:55:15;;;;;;;6.95;2.75;;;;;;;13.65;35.64;99770.03;5068407;28;20040;-59
2022/03/29 09:57:41;;;;;;;8.30;3.17;;;;;;;13.87;36.48;99775.22;5073010;28;20082;-58
2022/03/29 10:00:08;;;;;;;6.53;2.95;;;;;;;14.11;36.30;99767.97;5072434;28;20040;-58
2022/03/29 10:02:40;;;;;;;6.60;2.85;;;;;;;14.17;35.74;99755.34;5073448;28;20040;-58
2022/03/29 10:05:07;;;;;;;6.20;2.95;;;;;;;14.35;36.35;99756.25;5073476;28;20040;-59
2022/03/29 10:07:37;;;;;;;10.43;2.95;;;;;;;14.39;36.21;99759.63;5073490;28;20460;-59
2022/03/29 10:10:06;;;;;;;6.72;3.03;;;;;;;14.04;36.54;99764.75;5073454;28;20036;-59
2022/03/29 10:12:33;;;;;;;6.65;3.20;;;;;;;13.49;36.29;99770.72;5073522;28;20063;-59
2022/03/29 10:14:59;;;;;;;8.80;2.30;;;;;;;13.12;36.14;99771.38;5073155;28;20028;-59
2022/03/29 10:17:26;;;;;;;7.43;2.42;;;;;;;13.26;36.11;99769.03;5073311;28;20024;-59
2022/03/29 10:19:52;;;;;;;7.13;2.80;;;;;;;13.16;36.38;99777.38;5072949;28;20024;-59
2022/03/29 10:22:18;;;;;;;5.28;2.53;;;;;;;13.05;36.26;99768.13;5073790;28;20036;-59
2022/03/29 10:24:44;;;;;;;4.47;2.35;;;;;;;13.39;36.40;99761.47;5073298;28;20086;-59
2022/03/29 10:27:10;;;;;;;4.60;2.00;;;;;;;13.47;36.08;99764.63;5072970;28;20033;-58
2022/03/29 10:29:40;;;;;;;11.52;2.72;;;;;;;13.19;34.73;99766.69;5073266;28;20036;-59
2022/03/29 10:32:06;;;;;;;5.88;2.72;;;;;;;13.23;35.77;99769.16;5072819;28;20395;-59
2022/03/29 10:34:39;;;;;;;4.03;1.90;;;;;;;13.45;35.58;99763.84;5073138;28;20036;-59
2022/03/29 10:37:19;;;;;;;7.13;2.47;;;;;;;13.67;32.95;99750.56;5077191;28;20041;-59
2022/03/29 10:39:53;;;;;;;6.55;1.90;;;;;;;14.12;34.48;99757.31;5076642;28;20086;-59
2022/03/29 10:42:45;;;;;;;8.23;2.30;;;;;;;14.56;32.17;99756.19;5076989;28;20085;-57
2022/03/29 10:45:18;;;;;;;3.78;1.80;;;;;;;14.84;33.60;99751.31;5076812;28;20033;-58
2022/03/29 10:47:59;;;;;;;5.53;1.90;;;;;;;15.01;33.16;99751.31;5075766;28;20036;-58
2022/03/29 10:50:52;;;;;;;4.80;2.30;;;;;;;15.22;32.45;99744.09;5076897;28;20025;-57
2022/03/29 10:53:47;;;;;;;5.80;2.38;;;;;;;15.20;32.47;99742.44;5076724;28;20032;-58
2022/03/29 10:56:14;;;;;;;6.68;3.00;;;;;;;15.07;33.81;99741.34;5076170;28;20097;-57
2022/03/29 10:59:02;;;;;;;11.10;3.92;;;;;;;14.40;33.89;99741.06;5076712;28;20049;-57
2022/03/29 11:01:27;;;;;;;9.40;3.70;;;;;;;14.11;35.20;99739.75;5076268;28;20046;-58
2022/03/29 11:04:06;;;;;;;13.30;3.78;;;;;;;13.88;35.04;99748.72;5076375;28;20028;-58
2022/03/29 11:06:31;;;;;;;8.57;3.53;;;;;;;13.71;35.70;99735.44;5076544;28;20074;-58
2022/03/29 11:09:08;;;;;;;7.55;3.08;;;;;;;13.92;35.06;99737.09;5076065;28;20033;-58
2022/03/29 11:11:50;;;;;;;8.10;3.08;;;;;;;14.11;33.93;99723.06;5076480;28;20079;-58
2022/03/29 11:14:33;;;;;;;5.40;2.53;;;;;;;14.29;33.01;99728.34;5076011;28;20024;-57
2022/03/29 11:17:04;;;;;;;4.75;2.72;;;;;;;14.61;32.43;99719.84;5070936;28;20128;-58
2022/03/29 11:19:53;;;;;;;5.10;1.98;;;;;;;14.99;31.80;99707.34;5058609;28;20082;-57
2022/03/29 11:22:39;;;;;;;5.65;1.80;;;;;;;15.10;31.00;99710.31;5076253;28;20040;-57
2022/03/29 11:25:09;;;;;;;5.55;2.35;;;;;;;15.11;31.53;99703.22;5076114;28;20029;-59
2022/03/29 11:27:36;;;;;;;4.90;2.13;;;;;;;15.25;32.12;99706.03;5075970;28;20064;-58
2022/03/29 11:30:12;;;;;;;3.60;1.80;;;;;;;15.41;31.78;99696.38;5075937;28;20033;-58
2022/03/29 11:32:46;;;;;;;6.47;2.45;;;;;;;15.48;30.46;99689.81;5076107;28;20112;-58
2022/03/29 11:35:12;;;;;;;5.25;2.63;;;;;;;15.34;31.98;99694.97;5076015;28;20033;-58
2022/03/29 11:37:43;;;;;;;8.88;3.20;;;;;;;14.99;32.08;99689.69;5075735;28;20032;-58
2022/03/29 11:40:10;;;;;;;5.20;2.55;;;;;;;14.74;32.92;99698.00;5075643;28;20476;-58